Rothwell, United Kingdom
Current Conditions -  °F | °C
As of 4:50 AM on Wednesday 26 Nov 2014 (Local Time) from EGXT Reporting Station
Light Rain Light Rain  
Wind Chill: 40°   Ceiling: 2800
Heat Index: 45°   Visibility: 2.3mi
Dew Point: 45°   Wind: 8mph
Humidity: 100%   Direction: 60°ENE
Pressure: 29.94"   Gusts: NA
Location:  52.42°N, 0.8°W
Report Text: EGXT 260450Z AUTO 06007KT 3800 -RA SCT008/// BKN028/// 07/07 Q1014
Loading
Personal Weather Stations






























Interactive Weather Map New forecast layout! Learn more

10-Day Weather Forecast

Advertisements
Track Severe Weather on mobile